createdAt,value
2019-02-11T00:00:29.900Z,99418.71
2019-02-11T00:03:33.712Z,99425.27
2019-02-11T00:06:37.553Z,99425.45
2019-02-11T00:09:41.361Z,99425.08
2019-02-11T00:12:45.199Z,99433.82
2019-02-11T00:15:49.030Z,99444.00
2019-02-11T00:18:53.012Z,99448.05
2019-02-11T00:21:56.825Z,99455.34
2019-02-11T00:25:00.644Z,99458.50
2019-02-11T00:28:04.436Z,99465.67
2019-02-11T00:31:08.255Z,99464.77
2019-02-11T00:34:12.090Z,99474.83
2019-02-11T00:37:15.898Z,99479.21
2019-02-11T00:40:19.682Z,99484.69
2019-02-11T00:43:23.542Z,99491.43
2019-02-11T00:46:27.344Z,99494.78
2019-02-11T00:49:31.151Z,99494.81
2019-02-11T00:52:34.988Z,99499.06
2019-02-11T00:55:38.822Z,99511.88
2019-02-11T00:58:42.649Z,99512.67
2019-02-11T01:01:46.554Z,99524.45
2019-02-11T01:04:50.437Z,99531.06
2019-02-11T01:07:54.252Z,99534.29
2019-02-11T01:10:58.074Z,99548.02
2019-02-11T01:14:01.962Z,99557.23
2019-02-11T01:17:05.794Z,99561.90
2019-02-11T01:20:11.643Z,99570.05
2019-02-11T01:23:15.457Z,99569.64
2019-02-11T01:26:19.364Z,99569.64
2019-02-11T01:29:23.148Z,99580.33
2019-02-11T01:32:26.960Z,99590.11
2019-02-11T01:35:30.866Z,99592.75
2019-02-11T01:38:34.656Z,99597.28
2019-02-11T01:41:38.498Z,99591.64
2019-02-11T01:44:42.298Z,99597.32
2019-02-11T01:47:46.125Z,99596.41
2019-02-11T01:50:49.955Z,99599.80
2019-02-11T01:53:53.747Z,99597.66
2019-02-11T01:56:57.535Z,99605.97
2019-02-11T02:00:01.422Z,99612.72
2019-02-11T02:03:05.346Z,99614.84
2019-02-11T02:06:09.157Z,99616.67
2019-02-11T02:09:13.031Z,99622.75
2019-02-11T02:12:16.895Z,99622.13
2019-02-11T02:15:20.761Z,99622.13
2019-02-11T02:18:24.560Z,99625.58
2019-02-11T02:21:28.368Z,99638.44
2019-02-11T02:24:35.200Z,99637.20
2019-02-11T02:27:39.070Z,99644.11
2019-02-11T02:30:42.883Z,99641.06
2019-02-11T02:33:46.672Z,99641.91
2019-02-11T02:36:50.477Z,99644.41
2019-02-11T02:39:54.363Z,99648.56
2019-02-11T02:42:58.198Z,99652.92
2019-02-11T02:46:02.018Z,99660.97
2019-02-11T02:49:05.918Z,99669.72
2019-02-11T02:52:09.745Z,99671.35
2019-02-11T02:55:13.639Z,99673.17
2019-02-11T02:58:17.440Z,99677.27
2019-02-11T03:01:21.239Z,99694.66
2019-02-11T03:04:25.093Z,99700.47
2019-02-11T03:07:28.919Z,99709.95
2019-02-11T03:10:33.746Z,99717.13
2019-02-11T03:13:37.544Z,99716.71
2019-02-11T03:16:41.342Z,99722.73
2019-02-11T03:19:45.163Z,99716.48
2019-02-11T03:22:48.956Z,99729.20
2019-02-11T03:25:52.856Z,99744.19
2019-02-11T03:28:56.639Z,99742.98
2019-02-11T03:32:00.500Z,99750.17
2019-02-11T03:35:04.522Z,99750.94
2019-02-11T03:38:08.337Z,99760.29
2019-02-11T03:41:12.152Z,99767.39
2019-02-11T03:44:15.972Z,99769.17
2019-02-11T03:47:19.779Z,99782.42
2019-02-11T03:50:23.663Z,99792.12
2019-02-11T03:53:27.539Z,99796.06
2019-02-11T03:56:31.502Z,99797.80
2019-02-11T03:59:35.279Z,99804.39
2019-02-11T04:02:39.144Z,99815.50
2019-02-11T04:05:42.922Z,99817.95
2019-02-11T04:08:46.757Z,99816.48
2019-02-11T04:11:50.564Z,99828.64
2019-02-11T04:14:54.391Z,99831.63
2019-02-11T04:17:58.227Z,99835.66
2019-02-11T04:21:02.019Z,99856.63
2019-02-11T04:24:05.911Z,99855.73
2019-02-11T04:27:09.707Z,99864.47
2019-02-11T04:30:13.788Z,99873.73
2019-02-11T04:33:17.593Z,99875.47
2019-02-11T04:36:21.400Z,99888.21
2019-02-11T04:39:25.214Z,99890.28
2019-02-11T04:42:29.102Z,99890.77
2019-02-11T04:45:32.912Z,99904.86
2019-02-11T04:48:36.789Z,99906.23
2019-02-11T04:51:40.591Z,99910.16
2019-02-11T04:54:44.395Z,99912.53
2019-02-11T04:57:48.228Z,99932.06
2019-02-11T05:00:52.022Z,99933.84
2019-02-11T05:03:55.853Z,99936.67
2019-02-11T05:06:59.658Z,99940.19
2019-02-11T05:10:03.652Z,99943.05
2019-02-11T05:13:07.435Z,99952.46
2019-02-11T05:16:11.256Z,99952.01
2019-02-11T05:19:15.076Z,99953.34
2019-02-11T05:22:18.879Z,99962.64
2019-02-11T05:25:22.703Z,99966.11
2019-02-11T05:28:26.503Z,99961.73
2019-02-11T05:31:32.617Z,99971.84
2019-02-11T05:34:35.834Z,99971.84
2019-02-11T05:37:39.710Z,99995.63
2019-02-11T05:40:43.516Z,100005.38
2019-02-11T05:43:47.335Z,100010.52
2019-02-11T05:46:51.194Z,100014.05
2019-02-11T05:49:55.008Z,100017.66
2019-02-11T05:52:58.846Z,100022.48
2019-02-11T05:56:02.655Z,100023.81
2019-02-11T05:59:06.509Z,100032.54
2019-02-11T06:02:10.464Z,100033.42
2019-02-11T06:05:14.358Z,100042.70
2019-02-11T06:08:18.183Z,100055.38
2019-02-11T06:11:21.984Z,100060.11
2019-02-11T06:14:25.788Z,100063.70
2019-02-11T06:17:29.588Z,100066.95
2019-02-11T06:20:33.459Z,100079.16
2019-02-11T06:23:37.281Z,100083.02
2019-02-11T06:26:41.149Z,100097.70
2019-02-11T06:29:44.957Z,100098.19
2019-02-11T06:32:48.758Z,100097.71
2019-02-11T06:35:52.565Z,100114.50
2019-02-11T06:38:56.566Z,100114.59
2019-02-11T06:42:00.376Z,100129.30
2019-02-11T06:45:12.528Z,100138.44
2019-02-11T06:48:10.118Z,100150.64
2019-02-11T06:51:13.987Z,100155.13
2019-02-11T06:54:17.766Z,100161.81
2019-02-11T06:57:21.579Z,100166.23
2019-02-11T07:00:25.527Z,100177.00
2019-02-11T07:03:29.366Z,100178.55
2019-02-11T07:06:33.171Z,100194.27
2019-02-11T07:09:37.010Z,100195.58
2019-02-11T07:12:40.973Z,100207.84
2019-02-11T07:15:44.799Z,100212.14
2019-02-11T07:18:48.616Z,100214.89
2019-02-11T07:21:52.408Z,100236.88
2019-02-11T07:24:56.214Z,100254.77
2019-02-11T07:28:00.090Z,100254.38
2019-02-11T07:31:03.976Z,100274.48
2019-02-11T07:34:07.786Z,100285.88
2019-02-11T07:37:11.595Z,100287.20
2019-02-11T07:40:15.489Z,100301.57
2019-02-11T07:43:25.629Z,100300.93
2019-02-11T07:46:33.645Z,100321.06
2019-02-11T07:49:37.580Z,100337.64
2019-02-11T07:52:41.446Z,100336.80
2019-02-11T07:55:45.225Z,100346.80
2019-02-11T07:58:49.065Z,100352.39
2019-02-11T08:01:52.854Z,100358.53
2019-02-11T08:04:56.697Z,100380.88
2019-02-11T08:08:00.506Z,100386.63
2019-02-11T08:11:05.001Z,100385.69
2019-02-11T08:14:08.866Z,100400.57
2019-02-11T08:17:12.687Z,100418.98
2019-02-11T08:20:16.484Z,100433.35
2019-02-11T08:23:20.287Z,100446.17
2019-02-11T08:26:24.089Z,100445.67
2019-02-11T08:29:27.883Z,100464.50
2019-02-11T08:32:31.707Z,100481.73
2019-02-11T08:35:35.524Z,100491.36
2019-02-11T08:38:39.360Z,100504.93
2019-02-11T08:41:43.231Z,100512.44
2019-02-11T08:44:47.075Z,100504.85
2019-02-11T08:47:50.872Z,100515.37
2019-02-11T08:50:54.700Z,100515.37
2019-02-11T08:53:58.542Z,100521.45
2019-02-11T08:57:02.333Z,100531.05
2019-02-11T09:00:06.382Z,100534.02
2019-02-11T09:03:10.199Z,100553.44
2019-02-11T09:06:14.095Z,100561.64
2019-02-11T09:09:18.089Z,100569.73
2019-02-11T09:12:22.049Z,100567.06
2019-02-11T09:15:25.844Z,100581.49
2019-02-11T09:18:29.819Z,100588.38
2019-02-11T09:21:33.686Z,100595.85
2019-02-11T09:24:37.641Z,100605.16
2019-02-11T09:27:41.425Z,100607.53
2019-02-11T09:30:45.406Z,100626.25
2019-02-11T09:33:49.271Z,100624.51
2019-02-11T09:36:53.089Z,100638.48
2019-02-11T09:39:56.996Z,100647.37
2019-02-11T09:43:00.791Z,100659.31
2019-02-11T09:46:04.695Z,100671.08
2019-02-11T09:49:08.664Z,100678.30
2019-02-11T09:52:12.495Z,100678.16
2019-02-11T09:55:19.240Z,100688.69
2019-02-11T09:58:23.077Z,100700.05
2019-02-11T10:01:26.878Z,100697.59
2019-02-11T10:04:30.758Z,100715.06
2019-02-11T10:07:34.675Z,100722.86
2019-02-11T10:10:38.501Z,100733.88
2019-02-11T10:13:42.284Z,100749.91
2019-02-11T10:16:46.161Z,100745.09
2019-02-11T10:19:50.039Z,100757.34
2019-02-11T10:22:53.950Z,100768.22
2019-02-11T10:25:57.835Z,100777.88
2019-02-11T10:29:01.735Z,100782.77
2019-02-11T10:32:05.690Z,100788.56
2019-02-11T10:35:10.398Z,100802.17
2019-02-11T10:38:14.279Z,100813.95
2019-02-11T10:41:19.141Z,100825.44
2019-02-11T10:44:22.942Z,100838.11
2019-02-11T10:47:26.863Z,100834.45
2019-02-11T10:50:30.754Z,100824.09
2019-02-11T10:53:34.717Z,100843.73
2019-02-11T10:56:38.549Z,100860.93
2019-02-11T10:59:42.387Z,100879.08
2019-02-11T11:02:46.277Z,100879.92
2019-02-11T11:05:50.195Z,100890.00
2019-02-11T11:08:53.993Z,100896.14
2019-02-11T11:11:57.822Z,100898.39
2019-02-11T11:15:01.631Z,100903.53
2019-02-11T11:18:06.811Z,100920.00
2019-02-11T11:21:12.919Z,100914.85
2019-02-11T11:24:16.717Z,100921.08
2019-02-11T11:27:20.589Z,100922.34
2019-02-11T11:30:24.480Z,100938.85
2019-02-11T11:33:28.266Z,100939.23
2019-02-11T11:36:32.200Z,100946.73
2019-02-11T11:39:36.168Z,100948.89
2019-02-11T11:42:40.002Z,100959.78
2019-02-11T11:45:43.819Z,100971.25
2019-02-11T11:48:47.697Z,100977.42
2019-02-11T11:51:51.594Z,100995.20
2019-02-11T11:54:55.460Z,101001.33
2019-02-11T11:57:59.428Z,101003.03
2019-02-11T12:01:03.712Z,101004.40
2019-02-11T12:04:07.605Z,101014.45
2019-02-11T12:07:11.587Z,101026.63
2019-02-11T12:10:15.425Z,101027.66
2019-02-11T12:13:22.952Z,101046.30
2019-02-11T12:16:24.783Z,101066.11
2019-02-11T12:19:28.585Z,101075.81
2019-02-11T12:22:32.416Z,101081.70
2019-02-11T12:25:36.276Z,101082.66
2019-02-11T12:28:40.153Z,101087.87
2019-02-11T12:31:43.950Z,101098.40
2019-02-11T12:34:47.753Z,101106.35
2019-02-11T12:37:51.564Z,101120.96
2019-02-11T12:40:55.408Z,101117.06
2019-02-11T12:43:59.202Z,101125.88
2019-02-11T12:47:13.874Z,101125.78
2019-02-11T12:50:09.861Z,101132.41
2019-02-11T12:53:13.714Z,101134.98
2019-02-11T12:56:17.534Z,101138.45
2019-02-11T12:59:21.408Z,101156.09
2019-02-11T13:02:25.227Z,101166.66
2019-02-11T13:05:44.367Z,101172.85
2019-02-11T13:08:36.157Z,101179.91
2019-02-11T13:11:40.105Z,101189.06
2019-02-11T13:14:43.906Z,101194.29
2019-02-11T13:17:47.888Z,101207.52
2019-02-11T13:20:51.680Z,101217.61
2019-02-11T13:23:55.531Z,101224.19
2019-02-11T13:26:59.330Z,101229.17
2019-02-11T13:30:03.212Z,101232.62
2019-02-11T13:33:07.032Z,101241.00
2019-02-11T13:36:10.839Z,101254.67
2019-02-11T13:39:14.689Z,101246.25
2019-02-11T13:42:18.565Z,101246.22
2019-02-11T13:45:22.622Z,101249.75
2019-02-11T13:48:26.655Z,101255.89
2019-02-11T13:51:30.546Z,101273.96
2019-02-11T13:54:34.508Z,101268.23
2019-02-11T13:57:38.947Z,101278.43
2019-02-11T14:00:43.641Z,101275.35
2019-02-11T14:03:47.535Z,101287.67
2019-02-11T14:06:51.488Z,101291.25
2019-02-11T14:09:55.439Z,101299.15
2019-02-11T14:12:59.476Z,101312.83
2019-02-11T14:16:03.350Z,101304.02
2019-02-11T14:19:07.265Z,101313.27
2019-02-11T14:22:11.298Z,101320.73
2019-02-11T14:25:15.357Z,101330.42
2019-02-11T14:28:19.335Z,101337.94
2019-02-11T14:31:23.225Z,101339.69
2019-02-11T14:34:27.037Z,101340.14
2019-02-11T14:37:30.933Z,101349.39
2019-02-11T14:40:34.749Z,101350.31
2019-02-11T14:43:38.528Z,101361.31
2019-02-11T14:46:42.441Z,101370.52
2019-02-11T14:49:46.276Z,101374.94
2019-02-11T14:52:50.073Z,101381.97
2019-02-11T14:55:53.860Z,101386.39
2019-02-11T14:58:57.651Z,101402.21
2019-02-11T15:02:01.477Z,101408.34
2019-02-11T15:05:05.644Z,101419.76
2019-02-11T15:08:09.424Z,101426.81
2019-02-11T15:11:13.215Z,101436.45
2019-02-11T15:14:17.029Z,101454.91
2019-02-11T15:17:20.891Z,101461.02
2019-02-11T15:20:24.667Z,101462.75
2019-02-11T15:23:28.472Z,101460.03
2019-02-11T15:26:32.384Z,101484.19
2019-02-11T15:29:36.183Z,101485.45
2019-02-11T15:32:40.032Z,101489.84
2019-02-11T15:35:43.837Z,101499.92
2019-02-11T15:38:47.662Z,101510.88
2019-02-11T15:41:51.467Z,101536.70
2019-02-11T15:44:55.294Z,101545.00
2019-02-11T15:47:59.195Z,101546.81
2019-02-11T15:51:03.046Z,101550.27
2019-02-11T15:54:06.846Z,101563.45
2019-02-11T15:57:10.683Z,101554.15
2019-02-11T16:00:16.504Z,101560.24
2019-02-11T16:03:20.393Z,101559.38
2019-02-11T16:06:24.187Z,101576.86
2019-02-11T16:09:27.975Z,101596.09
2019-02-11T16:12:31.855Z,101592.13
2019-02-11T16:15:35.669Z,101596.91
2019-02-11T16:18:39.493Z,101595.13
2019-02-11T16:21:43.298Z,101599.51
2019-02-11T16:24:47.947Z,101601.21
2019-02-11T16:27:51.772Z,101629.69
2019-02-11T16:30:55.580Z,101640.21
2019-02-11T16:33:59.398Z,101651.59
2019-02-11T16:37:03.276Z,101649.75
2019-02-11T16:40:10.011Z,101669.03
2019-02-11T16:43:13.799Z,101683.88
2019-02-11T16:46:17.666Z,101694.28
2019-02-11T16:49:21.499Z,101700.41
2019-02-11T16:52:25.303Z,101693.81
2019-02-11T16:55:29.178Z,101702.20
2019-02-11T16:58:32.987Z,101715.01
2019-02-11T17:01:36.864Z,101718.80
2019-02-11T17:04:40.674Z,101726.27
2019-02-11T17:07:44.604Z,101716.27
2019-02-11T17:10:48.467Z,101738.16
2019-02-11T17:13:52.260Z,101749.84
2019-02-11T17:16:56.037Z,101766.54
2019-02-11T17:19:59.847Z,101767.72
2019-02-11T17:23:03.708Z,101788.36
2019-02-11T17:26:07.525Z,101778.36
2019-02-11T17:29:11.311Z,101784.00
2019-02-11T17:32:15.163Z,101784.52
2019-02-11T17:35:19.041Z,101795.03
2019-02-11T17:38:22.884Z,101796.03
2019-02-11T17:41:26.684Z,101800.77
2019-02-11T17:44:30.587Z,101809.17
2019-02-11T17:47:34.476Z,101815.84
2019-02-11T17:50:38.381Z,101816.09
2019-02-11T17:53:42.166Z,101812.73
2019-02-11T17:56:46.171Z,101828.48
2019-02-11T17:59:49.972Z,101834.50
2019-02-11T18:02:53.871Z,101845.08
2019-02-11T18:05:57.788Z,101866.11
2019-02-11T18:09:01.584Z,101870.36
2019-02-11T18:12:05.658Z,101867.55
2019-02-11T18:15:10.187Z,101861.73
2019-02-11T18:18:14.015Z,101875.69
2019-02-11T18:21:17.825Z,101881.11
2019-02-11T18:24:21.622Z,101886.95
2019-02-11T18:27:25.524Z,101888.51
2019-02-11T18:30:29.328Z,101885.38
2019-02-11T18:33:33.121Z,101898.88
2019-02-11T18:36:36.927Z,101910.70
2019-02-11T18:39:40.759Z,101913.73
2019-02-11T18:42:45.526Z,101902.38
2019-02-11T18:45:49.391Z,101906.27
2019-02-11T18:48:53.225Z,101912.34
2019-02-11T18:51:57.203Z,101917.50
2019-02-11T18:55:01.049Z,101925.37
2019-02-11T18:58:04.842Z,101932.39
2019-02-11T19:01:08.631Z,101929.45
2019-02-11T19:04:12.594Z,101932.39
2019-02-11T19:07:16.424Z,101934.16
2019-02-11T19:10:20.373Z,101948.14
2019-02-11T19:13:24.177Z,101953.31
2019-02-11T19:16:27.969Z,101953.00
2019-02-11T19:19:31.772Z,101948.61
2019-02-11T19:22:35.643Z,101960.60
2019-02-11T19:25:39.444Z,101954.27
2019-02-11T19:28:43.407Z,101956.08
2019-02-11T19:31:47.229Z,101957.70
2019-02-11T19:34:51.035Z,101960.88
2019-02-11T19:37:54.829Z,101964.35
2019-02-11T19:40:58.642Z,101961.78
2019-02-11T19:44:02.573Z,101969.92
2019-02-11T19:47:06.424Z,101973.80
2019-02-11T19:50:11.930Z,101978.29
2019-02-11T19:53:15.722Z,101978.52
2019-02-11T19:56:19.515Z,101995.22
2019-02-11T19:59:23.369Z,102004.00
2019-02-11T20:02:27.156Z,102004.46
2019-02-11T20:05:30.983Z,102003.09
2019-02-11T20:08:34.987Z,102002.54
2019-02-11T20:11:38.776Z,102015.97
2019-02-11T20:14:42.620Z,102008.39
2019-02-11T20:17:46.619Z,102011.83
2019-02-11T20:20:50.424Z,102020.86
2019-02-11T20:23:54.256Z,102033.37
2019-02-11T20:26:58.050Z,102039.48
2019-02-11T20:30:01.924Z,102037.83
2019-02-11T20:33:05.716Z,102049.69
2019-02-11T20:36:09.540Z,102048.33
2019-02-11T20:39:13.353Z,102043.69
2019-02-11T20:42:17.337Z,102052.02
2019-02-11T20:45:25.637Z,102052.98
2019-02-11T20:48:29.432Z,102058.33
2019-02-11T20:51:33.277Z,102059.03
2019-02-11T20:54:37.085Z,102056.01
2019-02-11T20:57:41.067Z,102068.28
2019-02-11T21:00:44.855Z,102080.09
2019-02-11T21:03:48.674Z,102081.81
2019-02-11T21:06:52.486Z,102077.98
2019-02-11T21:09:56.281Z,102083.94
2019-02-11T21:13:00.159Z,102090.86
2019-02-11T21:16:04.043Z,102087.92
2019-02-11T21:19:07.858Z,102099.35
2019-02-11T21:22:11.715Z,102104.54
2019-02-11T21:25:15.666Z,102103.37
2019-02-11T21:28:19.507Z,102115.23
2019-02-11T21:31:23.330Z,102120.53
2019-02-11T21:34:27.203Z,102122.61
2019-02-11T21:37:31.015Z,102111.34
2019-02-11T21:40:34.828Z,102109.19
2019-02-11T21:43:38.656Z,102123.78
2019-02-11T21:46:42.434Z,102141.53
2019-02-11T21:49:46.333Z,102147.53
2019-02-11T21:52:50.134Z,102131.48
2019-02-11T21:55:53.933Z,102126.22
2019-02-11T21:58:57.866Z,102128.48
2019-02-11T22:02:01.692Z,102142.84
2019-02-11T22:05:05.728Z,102170.42
2019-02-11T22:08:09.645Z,102169.97
2019-02-11T22:11:13.461Z,102159.80
2019-02-11T22:14:17.264Z,102175.16
2019-02-11T22:17:21.056Z,102185.67
2019-02-11T22:20:24.950Z,102170.02
2019-02-11T22:23:28.763Z,102165.52
2019-02-11T22:26:32.561Z,102174.88
2019-02-11T22:29:36.437Z,102173.22
2019-02-11T22:32:40.301Z,102166.33
2019-02-11T22:35:44.129Z,102167.02
2019-02-11T22:38:47.931Z,102169.42
2019-02-11T22:41:51.759Z,102179.73
2019-02-11T22:44:55.546Z,102182.77
2019-02-11T22:47:59.331Z,102192.02
2019-02-11T22:51:03.220Z,102200.86
2019-02-11T22:54:06.973Z,102189.05
2019-02-11T22:57:10.806Z,102192.24
2019-02-11T23:00:25.804Z,102186.89
2019-02-11T23:03:29.667Z,102200.92
2019-02-11T23:06:33.464Z,102199.20
2019-02-11T23:09:37.278Z,102203.27
2019-02-11T23:16:44.932Z,102215.47
2019-02-11T23:19:48.879Z,102213.36
2019-02-11T23:22:52.722Z,102224.98
2019-02-11T23:25:56.576Z,102217.36
2019-02-11T23:29:00.485Z,102214.05
2019-02-11T23:32:04.468Z,102221.36
2019-02-11T23:35:08.416Z,102227.23
2019-02-11T23:38:12.295Z,102234.31
2019-02-11T23:41:16.199Z,102224.61
2019-02-11T23:44:20.050Z,102220.80
2019-02-11T23:47:23.883Z,102221.02
2019-02-11T23:50:27.756Z,102226.45
2019-02-11T23:53:31.588Z,102226.27
